createdAt,value
2018-08-16T00:00:25.231Z,73.67
2018-08-16T00:02:53.020Z,74.23
2018-08-16T00:05:21.750Z,74.09
2018-08-16T00:07:49.322Z,74.71
2018-08-16T00:10:16.912Z,74.67
2018-08-16T00:12:44.531Z,74.02
2018-08-16T00:15:12.060Z,73.85
2018-08-16T00:17:39.653Z,74.11
2018-08-16T00:20:07.228Z,74.11
2018-08-16T00:22:35.242Z,74.63
2018-08-16T00:25:03.179Z,74.34
2018-08-16T00:27:30.727Z,74.55
2018-08-16T00:29:58.280Z,74.78
2018-08-16T00:32:25.857Z,74.34
2018-08-16T00:34:53.375Z,74.04
2018-08-16T00:37:20.976Z,74.35
2018-08-16T00:39:48.570Z,74.60
2018-08-16T00:42:16.100Z,74.87
2018-08-16T00:44:44.745Z,74.71
2018-08-16T00:47:12.431Z,74.85
2018-08-16T00:49:40.120Z,74.91
2018-08-16T00:52:07.684Z,74.81
2018-08-16T00:54:35.257Z,75.04
2018-08-16T00:57:02.833Z,75.20
2018-08-16T00:59:30.416Z,75.14
2018-08-16T01:01:59.985Z,74.82
2018-08-16T01:04:27.561Z,74.67
2018-08-16T01:06:55.112Z,75.46
2018-08-16T01:09:22.683Z,74.90
2018-08-16T01:11:50.254Z,75.42
2018-08-16T01:14:17.964Z,75.34
2018-08-16T01:16:45.517Z,75.69
2018-08-16T01:19:13.068Z,76.07
2018-08-16T01:21:40.677Z,75.75
2018-08-16T01:24:08.232Z,74.85
2018-08-16T01:26:35.854Z,75.25
2018-08-16T01:29:03.416Z,75.03
2018-08-16T01:31:30.978Z,74.98
2018-08-16T01:33:58.551Z,75.01
2018-08-16T01:36:26.121Z,75.05
2018-08-16T01:38:53.665Z,75.65
2018-08-16T01:41:21.242Z,74.88
2018-08-16T01:43:48.815Z,75.26
2018-08-16T01:46:16.905Z,75.10
2018-08-16T01:48:44.461Z,75.06
2018-08-16T01:51:12.005Z,75.12
2018-08-16T01:53:39.653Z,75.15
2018-08-16T01:56:07.992Z,75.04
2018-08-16T01:58:35.580Z,76.21
2018-08-16T02:01:03.110Z,76.40
2018-08-16T02:03:30.695Z,75.52
2018-08-16T02:05:58.221Z,75.11
2018-08-16T02:08:25.803Z,75.07
2018-08-16T02:10:54.428Z,75.38
2018-08-16T02:13:21.961Z,75.94
2018-08-16T02:15:49.533Z,75.55
2018-08-16T02:18:17.109Z,75.55
2018-08-16T02:20:45.077Z,76.15
2018-08-16T02:23:12.640Z,75.15
2018-08-16T02:25:41.286Z,75.23
2018-08-16T02:28:08.844Z,75.19
2018-08-16T02:30:36.446Z,75.25
2018-08-16T02:33:04.783Z,74.99
2018-08-16T02:35:32.331Z,74.98
2018-08-16T02:37:59.930Z,75.62
2018-08-16T02:40:27.457Z,75.00
2018-08-16T02:42:55.015Z,75.59
2018-08-16T02:45:22.554Z,76.25
2018-08-16T02:47:50.117Z,75.65
2018-08-16T02:50:17.656Z,75.46
2018-08-16T02:52:45.235Z,75.95
2018-08-16T02:55:12.760Z,76.18
2018-08-16T02:57:41.351Z,76.24
2018-08-16T03:00:09.566Z,76.21
2018-08-16T03:02:37.153Z,76.68
2018-08-16T03:05:04.730Z,76.54
2018-08-16T03:07:32.331Z,76.37
2018-08-16T03:09:59.868Z,77.10
2018-08-16T03:12:27.429Z,76.18
2018-08-16T03:14:55.162Z,76.06
2018-08-16T03:17:22.755Z,75.62
2018-08-16T03:19:50.423Z,75.69
2018-08-16T03:22:17.958Z,75.44
2018-08-16T03:24:45.614Z,75.71
2018-08-16T03:27:13.209Z,75.88
2018-08-16T03:29:40.753Z,75.79
2018-08-16T03:32:08.349Z,76.62
2018-08-16T03:34:36.879Z,75.89
2018-08-16T03:37:04.485Z,76.06
2018-08-16T03:39:32.131Z,76.15
2018-08-16T03:41:59.701Z,76.38
2018-08-16T03:44:27.280Z,76.12
2018-08-16T03:46:54.818Z,76.23
2018-08-16T03:49:23.889Z,75.55
2018-08-16T03:51:51.587Z,75.13
2018-08-16T03:54:19.177Z,74.92
2018-08-16T03:56:46.800Z,74.45
2018-08-16T03:59:14.575Z,74.74
2018-08-16T04:01:42.117Z,74.46
2018-08-16T04:04:09.859Z,74.96
2018-08-16T04:06:37.497Z,75.94
2018-08-16T04:09:05.018Z,75.32
2018-08-16T04:11:32.565Z,75.86
2018-08-16T04:14:00.192Z,76.96
2018-08-16T04:16:28.630Z,76.91
2018-08-16T04:18:56.265Z,76.59
2018-08-16T04:21:23.843Z,76.81
2018-08-16T04:23:51.378Z,76.57
2018-08-16T04:26:19.284Z,75.81
2018-08-16T04:28:46.920Z,76.29
2018-08-16T04:31:14.459Z,76.64
2018-08-16T04:33:42.091Z,76.77
2018-08-16T04:36:09.677Z,77.39
2018-08-16T04:38:37.269Z,76.87
2018-08-16T04:41:04.828Z,77.10
2018-08-16T04:43:32.423Z,76.64
2018-08-16T04:45:59.994Z,76.52
2018-08-16T04:48:27.592Z,76.29
2018-08-16T04:50:55.222Z,77.27
2018-08-16T04:53:23.953Z,76.87
2018-08-16T04:55:51.559Z,77.25
2018-08-16T04:58:19.097Z,76.23
2018-08-16T05:00:46.677Z,76.31
2018-08-16T05:03:14.236Z,76.30
2018-08-16T05:05:41.881Z,76.14
2018-08-16T05:08:09.429Z,75.95
2018-08-16T05:10:37.012Z,77.39
2018-08-16T05:13:04.629Z,76.43
2018-08-16T05:15:32.178Z,76.57
2018-08-16T05:17:59.764Z,76.34
2018-08-16T05:20:27.323Z,76.47
2018-08-16T05:22:54.909Z,77.38
2018-08-16T05:25:22.450Z,76.28
2018-08-16T05:27:50.041Z,76.34
2018-08-16T05:30:17.602Z,77.40
2018-08-16T05:32:45.206Z,76.42
2018-08-16T05:35:12.927Z,76.25
2018-08-16T05:37:40.518Z,75.96
2018-08-16T05:40:08.068Z,75.75
2018-08-16T05:42:35.671Z,75.46
2018-08-16T05:45:03.240Z,75.49
2018-08-16T05:47:30.884Z,75.27
2018-08-16T05:49:58.407Z,75.30
2018-08-16T05:52:26.011Z,74.99
2018-08-16T05:54:53.606Z,75.31
2018-08-16T05:57:21.165Z,75.41
2018-08-16T05:59:48.783Z,75.44
2018-08-16T06:02:16.524Z,75.21
2018-08-16T06:04:44.087Z,75.66
2018-08-16T06:07:14.818Z,75.38
2018-08-16T06:09:42.383Z,76.23
2018-08-16T06:12:10.002Z,75.79
2018-08-16T06:14:37.561Z,75.23
2018-08-16T06:17:05.168Z,75.14
2018-08-16T06:19:32.701Z,75.59
2018-08-16T06:22:00.298Z,76.81
2018-08-16T06:24:27.862Z,76.05
2018-08-16T06:26:55.458Z,76.75
2018-08-16T06:29:23.009Z,76.94
2018-08-16T06:31:50.640Z,76.25
2018-08-16T06:34:18.202Z,76.27
2018-08-16T06:36:45.804Z,75.95
2018-08-16T06:39:13.379Z,75.96
2018-08-16T06:41:40.928Z,76.19
2018-08-16T06:44:08.516Z,76.13
2018-08-16T06:46:40.905Z,76.02
2018-08-16T06:49:08.508Z,75.57
2018-08-16T06:51:36.080Z,74.99
2018-08-16T06:54:03.670Z,74.97
2018-08-16T06:56:31.344Z,74.66
2018-08-16T06:58:59.126Z,75.00
2018-08-16T07:01:27.033Z,74.74
2018-08-16T07:03:54.601Z,74.60
2018-08-16T07:06:25.717Z,74.43
2018-08-16T07:08:53.317Z,74.33
2018-08-16T07:11:21.005Z,74.24
2018-08-16T07:13:48.573Z,74.29
2018-08-16T07:16:16.187Z,73.57
2018-08-16T07:18:45.876Z,73.48
2018-08-16T07:21:13.434Z,73.30
2018-08-16T07:23:41.018Z,73.34
2018-08-16T07:26:08.718Z,73.04
2018-08-16T07:28:36.267Z,72.44
2018-08-16T07:31:04.054Z,72.28
2018-08-16T07:33:32.690Z,72.24
2018-08-16T07:36:00.261Z,72.34
2018-08-16T07:38:27.820Z,72.80
2018-08-16T07:40:55.376Z,72.23
2018-08-16T07:43:22.963Z,71.90
2018-08-16T07:45:50.729Z,72.33
2018-08-16T07:48:18.229Z,72.49
2018-08-16T07:50:45.747Z,72.20
2018-08-16T07:53:13.343Z,71.97
2018-08-16T07:55:40.897Z,72.12
2018-08-16T07:58:08.572Z,72.06
2018-08-16T08:00:36.109Z,71.85
2018-08-16T08:03:03.686Z,71.62
2018-08-16T08:05:31.247Z,71.85
2018-08-16T08:07:58.840Z,71.84
2018-08-16T08:10:26.533Z,72.02
2018-08-16T08:12:54.991Z,72.18
2018-08-16T08:15:24.033Z,71.84
2018-08-16T08:17:51.945Z,71.99
2018-08-16T08:20:19.671Z,72.09
2018-08-16T08:22:48.984Z,71.37
2018-08-16T08:25:16.571Z,71.68
2018-08-16T08:27:44.274Z,71.51
2018-08-16T08:30:11.980Z,71.63
2018-08-16T08:32:39.873Z,71.58
2018-08-16T08:35:07.566Z,71.66
2018-08-16T08:38:01.711Z,71.19
2018-08-16T08:40:29.485Z,71.25
2018-08-16T08:42:57.035Z,70.90
2018-08-16T08:45:24.638Z,70.62
2018-08-16T08:47:55.600Z,70.56
2018-08-16T08:50:23.185Z,69.55
2018-08-16T08:52:50.763Z,69.49
2018-08-16T08:55:31.183Z,69.31
2018-08-16T08:57:58.912Z,69.06
2018-08-16T09:00:26.474Z,68.70
2018-08-16T09:02:54.040Z,68.70
2018-08-16T09:05:21.600Z,68.65
2018-08-16T09:07:49.143Z,68.85
2018-08-16T09:10:28.643Z,69.59
2018-08-16T09:13:07.905Z,69.54
2018-08-16T09:15:35.680Z,68.86
2018-08-16T09:18:03.250Z,68.97
2018-08-16T09:20:30.983Z,68.53
2018-08-16T09:22:58.556Z,68.95
2018-08-16T09:25:29.200Z,68.44
2018-08-16T09:27:58.259Z,68.26
2018-08-16T09:34:06.143Z,67.69
2018-08-16T09:36:33.749Z,67.51
2018-08-16T09:39:01.344Z,67.51
2018-08-16T09:41:28.989Z,67.43
2018-08-16T09:43:56.629Z,67.44
2018-08-16T09:46:35.945Z,67.11
2018-08-16T09:49:03.487Z,67.32
2018-08-16T09:51:32.309Z,66.87
2018-08-16T09:53:59.980Z,66.64
2018-08-16T09:56:27.625Z,66.46
2018-08-16T09:58:55.191Z,65.76
2018-08-16T10:01:23.900Z,65.13
2018-08-16T10:03:51.869Z,65.22
2018-08-16T10:06:19.487Z,64.82
2018-08-16T10:08:47.256Z,64.87
2018-08-16T10:11:16.821Z,64.41
2018-08-16T10:13:44.562Z,64.12
2018-08-16T10:16:12.105Z,64.37
2018-08-16T10:18:39.707Z,64.45
2018-08-16T10:21:10.935Z,63.00
2018-08-16T10:23:39.685Z,63.50
2018-08-16T10:26:07.421Z,63.48
2018-08-16T10:28:35.214Z,63.47
2018-08-16T10:31:02.961Z,63.41
2018-08-16T10:33:30.699Z,62.61
2018-08-16T10:36:00.624Z,62.81
2018-08-16T10:38:29.231Z,62.35
2018-08-16T10:40:57.261Z,61.41
2018-08-16T10:43:24.855Z,61.30
2018-08-16T10:45:52.399Z,61.51
2018-08-16T10:48:20.135Z,60.58
2018-08-16T10:50:47.923Z,60.12
2018-08-16T10:53:15.474Z,59.97
2018-08-16T10:55:43.303Z,59.80
2018-08-16T10:58:10.956Z,59.76
2018-08-16T11:00:38.722Z,59.92
2018-08-16T11:03:06.501Z,59.27
2018-08-16T11:05:34.093Z,59.13
2018-08-16T11:08:02.849Z,59.05
2018-08-16T11:10:31.574Z,59.15
2018-08-16T11:12:59.233Z,59.04
2018-08-16T11:15:28.025Z,58.53
2018-08-16T11:17:55.778Z,58.56
2018-08-16T11:20:23.394Z,58.33
2018-08-16T11:22:51.048Z,58.27
2018-08-16T11:25:18.801Z,57.61
2018-08-16T11:27:47.344Z,57.15
2018-08-16T11:30:14.902Z,57.18
2018-08-16T11:32:42.492Z,56.80
2018-08-16T11:35:10.140Z,56.97
2018-08-16T11:37:39.955Z,57.39
2018-08-16T11:40:07.580Z,57.63
2018-08-16T11:42:35.300Z,56.61
2018-08-16T11:45:02.828Z,56.32
2018-08-16T11:47:30.554Z,55.90
2018-08-16T11:49:58.124Z,55.43
2018-08-16T11:52:25.784Z,54.92
2018-08-16T11:54:53.349Z,54.67
2018-08-16T11:57:21.188Z,54.35
2018-08-16T11:59:48.742Z,54.82
2018-08-16T12:02:16.360Z,55.44
2018-08-16T12:04:43.877Z,55.38
2018-08-16T12:07:11.447Z,55.65
2018-08-16T12:09:39.141Z,55.03
2018-08-16T12:12:06.919Z,55.35
2018-08-16T12:14:34.706Z,54.79
2018-08-16T12:17:03.418Z,54.92
2018-08-16T12:19:31.014Z,54.96
2018-08-16T12:21:58.747Z,54.91
2018-08-16T12:24:26.476Z,55.41
2018-08-16T12:26:54.176Z,54.28
2018-08-16T12:29:30.945Z,54.63
2018-08-16T12:32:01.757Z,54.05
2018-08-16T12:34:29.412Z,54.23
2018-08-16T12:36:58.316Z,54.22
2018-08-16T12:39:26.689Z,54.24
2018-08-16T12:41:54.306Z,53.37
2018-08-16T12:44:22.049Z,53.18
2018-08-16T12:47:10.150Z,53.00
2018-08-16T12:49:37.855Z,53.61
2018-08-16T12:52:05.538Z,53.00
2018-08-16T12:54:33.304Z,53.08
2018-08-16T12:57:01.344Z,52.54
2018-08-16T12:59:28.950Z,53.13
2018-08-16T13:01:56.539Z,52.82
2018-08-16T13:04:24.071Z,53.04
2018-08-16T13:06:51.658Z,52.35
2018-08-16T13:09:19.477Z,51.69
2018-08-16T13:11:47.046Z,51.07
2018-08-16T13:14:16.706Z,50.33
2018-08-16T13:16:44.472Z,50.67
2018-08-16T13:59:59.232Z,49.81
2018-08-16T14:02:26.829Z,50.20
2018-08-16T14:04:54.826Z,49.82
2018-08-16T14:07:22.473Z,48.92
2018-08-16T14:09:50.354Z,50.96
2018-08-16T14:12:18.272Z,50.43
2018-08-16T14:14:47.197Z,49.56
2018-08-16T14:17:15.155Z,47.25
2018-08-16T14:19:42.752Z,47.78
2018-08-16T14:22:10.518Z,47.15
2018-08-16T14:24:38.170Z,47.81
2018-08-16T14:27:05.743Z,47.70
2018-08-16T14:29:33.365Z,48.39
2018-08-16T14:32:01.031Z,47.34
2018-08-16T14:34:28.869Z,47.70
2018-08-16T14:36:56.455Z,45.84
2018-08-16T14:39:23.982Z,46.57
2018-08-16T14:41:51.827Z,46.34
2018-08-16T14:44:19.396Z,46.24
2018-08-16T14:46:48.987Z,46.17
2018-08-16T14:49:16.558Z,47.71
2018-08-16T14:51:44.148Z,46.49
2018-08-16T14:54:11.820Z,46.72
2018-08-16T14:56:39.404Z,46.85
2018-08-16T14:59:08.874Z,46.79
2018-08-16T15:01:36.445Z,46.20
2018-08-16T15:04:04.018Z,45.86
2018-08-16T15:06:31.571Z,45.46
2018-08-16T15:08:59.120Z,45.47
2018-08-16T15:11:26.702Z,45.58
2018-08-16T15:13:54.236Z,45.79
2018-08-16T15:16:22.954Z,46.94
2018-08-16T15:18:50.792Z,45.01
2018-08-16T15:21:18.384Z,45.57
2018-08-16T15:23:46.555Z,47.15
2018-08-16T15:26:15.505Z,46.88
2018-08-16T15:28:43.186Z,45.86
2018-08-16T15:31:10.799Z,45.98
2018-08-16T15:33:38.333Z,46.09
2018-08-16T15:36:06.204Z,47.43
2018-08-16T15:38:33.749Z,47.33
2018-08-16T15:41:01.687Z,45.98
2018-08-16T15:43:29.313Z,45.52
2018-08-16T15:45:57.012Z,45.49
2018-08-16T15:48:24.641Z,44.57
2018-08-16T15:50:52.213Z,44.90
2018-08-16T15:53:19.900Z,45.29
2018-08-16T15:55:47.520Z,44.82
2018-08-16T15:58:15.079Z,44.81
2018-08-16T16:00:42.653Z,44.72
2018-08-16T16:03:10.243Z,44.73
2018-08-16T16:05:37.942Z,45.09
2018-08-16T16:08:05.830Z,44.59
2018-08-16T16:10:33.565Z,45.55
2018-08-16T16:13:01.119Z,44.27
2018-08-16T16:15:28.758Z,45.06
2018-08-16T16:17:56.318Z,45.91
2018-08-16T16:20:24.011Z,45.04
2018-08-16T16:22:51.575Z,43.29
2018-08-16T16:25:19.256Z,44.02
2018-08-16T16:27:46.788Z,44.91
2018-08-16T16:30:14.413Z,43.45
2018-08-16T16:32:42.005Z,43.33
2018-08-16T16:35:09.747Z,43.36
2018-08-16T16:37:37.329Z,43.35
2018-08-16T16:40:04.885Z,43.66
2018-08-16T16:42:32.433Z,42.80
2018-08-16T16:45:00.072Z,43.52
2018-08-16T16:47:27.919Z,42.96
2018-08-16T16:49:55.694Z,42.91
2018-08-16T16:52:24.409Z,41.85
2018-08-16T16:54:52.987Z,43.27
2018-08-16T16:57:21.174Z,43.90
2018-08-16T16:59:50.859Z,42.81
2018-08-16T17:02:19.342Z,42.45
2018-08-16T17:04:47.200Z,43.38
2018-08-16T17:07:14.954Z,43.92
2018-08-16T17:09:42.649Z,43.06
2018-08-16T17:12:10.475Z,43.20
2018-08-16T17:14:38.412Z,43.33
2018-08-16T17:17:07.100Z,43.96
2018-08-16T17:19:34.701Z,43.38
2018-08-16T17:22:02.317Z,43.90
2018-08-16T17:24:29.915Z,44.45
2018-08-16T17:26:57.913Z,44.58
2018-08-16T17:29:25.501Z,44.02
2018-08-16T17:31:53.354Z,44.45
2018-08-16T17:34:21.224Z,45.30
2018-08-16T17:36:49.126Z,44.97
2018-08-16T17:39:16.642Z,45.37
2018-08-16T17:41:44.275Z,45.42
2018-08-16T17:44:11.865Z,45.55
2018-08-16T17:46:39.427Z,45.25
2018-08-16T17:49:07.122Z,45.98
2018-08-16T17:51:34.661Z,45.98
2018-08-16T17:54:03.385Z,47.53
2018-08-16T17:56:30.972Z,46.27
2018-08-16T17:58:58.535Z,46.50
2018-08-16T18:01:26.091Z,47.41
2018-08-16T18:03:53.683Z,47.63
2018-08-16T18:06:21.288Z,47.28
2018-08-16T18:08:50.894Z,47.40
2018-08-16T18:11:18.486Z,48.00
2018-08-16T18:13:46.066Z,47.83
2018-08-16T18:16:13.750Z,48.23
2018-08-16T18:18:42.289Z,48.37
2018-08-16T18:21:09.828Z,48.34
2018-08-16T18:23:37.396Z,48.36
2018-08-16T18:26:04.957Z,48.41
2018-08-16T18:28:32.541Z,49.19
2018-08-16T18:31:00.111Z,49.14
2018-08-16T18:33:27.693Z,49.31
2018-08-16T18:35:57.272Z,49.50
2018-08-16T18:38:24.865Z,50.02
2018-08-16T18:40:52.465Z,49.24
2018-08-16T18:43:20.053Z,50.45
2018-08-16T18:45:47.581Z,50.27
2018-08-16T18:48:15.373Z,50.80
2018-08-16T18:50:42.963Z,50.23
2018-08-16T18:53:10.508Z,50.35
2018-08-16T18:55:38.250Z,50.19
2018-08-16T18:58:05.772Z,50.74
2018-08-16T19:00:34.291Z,51.14
2018-08-16T19:03:02.131Z,51.17
2018-08-16T19:05:29.797Z,52.34
2018-08-16T19:07:57.313Z,52.19
2018-08-16T19:10:24.915Z,51.91
2018-08-16T19:12:52.501Z,52.27
2018-08-16T19:15:22.121Z,52.37
2018-08-16T19:17:49.649Z,52.25
2018-08-16T19:20:18.609Z,52.55
2018-08-16T19:22:46.173Z,52.76
2018-08-16T19:25:13.846Z,52.96
2018-08-16T19:27:41.444Z,52.84
2018-08-16T19:30:09.060Z,53.20
2018-08-16T19:32:36.580Z,53.37
2018-08-16T19:35:04.157Z,53.66
2018-08-16T19:37:31.753Z,54.16
2018-08-16T19:39:59.435Z,53.90
2018-08-16T19:42:26.994Z,54.26
2018-08-16T19:44:54.574Z,54.65
2018-08-16T19:47:22.090Z,54.83
2018-08-16T19:49:49.662Z,55.21
2018-08-16T19:52:17.256Z,55.50
2018-08-16T19:54:45.130Z,56.07
2018-08-16T19:57:12.721Z,55.88
2018-08-16T19:59:40.258Z,55.79
2018-08-16T20:02:07.852Z,55.93
2018-08-16T20:04:35.480Z,56.40
2018-08-16T20:07:03.084Z,56.26
2018-08-16T20:09:30.621Z,57.34
2018-08-16T20:11:59.235Z,56.75
2018-08-16T20:14:30.287Z,57.33
2018-08-16T20:16:58.031Z,56.80
2018-08-16T20:19:25.587Z,57.32
2018-08-16T20:21:54.291Z,57.76
2018-08-16T20:24:23.916Z,57.53
2018-08-16T20:26:51.497Z,57.78
2018-08-16T20:29:19.047Z,57.79
2018-08-16T20:31:46.663Z,57.97
2018-08-16T20:34:14.191Z,58.28
2018-08-16T20:36:43.951Z,58.38
2018-08-16T20:39:11.551Z,58.81
2018-08-16T20:41:39.242Z,58.87
2018-08-16T20:44:06.934Z,59.20
2018-08-16T20:46:36.582Z,59.12
2018-08-16T20:49:04.276Z,59.67
2018-08-16T20:51:31.856Z,59.65
2018-08-16T20:53:59.532Z,59.42
2018-08-16T20:56:29.252Z,59.57
2018-08-16T20:58:57.255Z,59.79
2018-08-16T21:01:27.084Z,59.79
2018-08-16T21:03:54.637Z,59.94
2018-08-16T21:06:22.246Z,60.21
2018-08-16T21:08:49.861Z,60.54
2018-08-16T21:11:17.591Z,60.41
2018-08-16T21:13:45.374Z,60.73
2018-08-16T21:16:13.152Z,60.68
2018-08-16T21:18:40.866Z,60.61
2018-08-16T21:21:08.710Z,60.71
2018-08-16T21:23:36.429Z,60.86
2018-08-16T21:26:04.203Z,61.22
2018-08-16T21:28:31.768Z,61.22
2018-08-16T21:30:59.302Z,61.57
2018-08-16T21:33:26.888Z,61.50
2018-08-16T21:35:54.490Z,61.52
2018-08-16T21:38:22.094Z,61.67
2018-08-16T21:40:49.928Z,61.99
2018-08-16T21:43:17.933Z,62.32
2018-08-16T21:45:45.481Z,61.92
2018-08-16T21:48:13.197Z,62.09
2018-08-16T21:50:40.755Z,61.85
2018-08-16T21:53:08.329Z,62.06
2018-08-16T21:55:35.910Z,62.05
2018-08-16T21:58:03.450Z,62.30
2018-08-16T22:00:31.032Z,62.60
2018-08-16T22:02:58.601Z,62.29
2018-08-16T22:05:26.158Z,62.13
2018-08-16T22:07:53.772Z,62.63
2018-08-16T22:10:21.376Z,62.73
2018-08-16T22:12:49.361Z,62.55
2018-08-16T22:15:16.966Z,62.60
2018-08-16T22:17:44.493Z,62.70
2018-08-16T22:20:12.039Z,62.79
2018-08-16T22:22:39.613Z,62.56
2018-08-16T22:25:07.140Z,62.65
2018-08-16T22:27:35.006Z,62.64
2018-08-16T22:30:02.551Z,62.70
2018-08-16T22:32:30.245Z,63.20
2018-08-16T22:34:57.824Z,62.78
2018-08-16T22:37:25.443Z,63.17
2018-08-16T22:39:53.043Z,63.38
2018-08-16T22:42:20.670Z,63.21
2018-08-16T22:44:48.381Z,63.54
2018-08-16T22:47:15.976Z,63.43
2018-08-16T22:49:43.653Z,63.43
2018-08-16T22:52:11.390Z,63.31
2018-08-16T22:54:38.986Z,63.36
2018-08-16T22:57:06.525Z,63.68
2018-08-16T22:59:34.063Z,63.31
2018-08-16T23:02:01.962Z,63.58
2018-08-16T23:04:29.965Z,63.54
2018-08-16T23:06:57.721Z,63.64
2018-08-16T23:09:25.265Z,63.76
2018-08-16T23:11:52.815Z,63.80
2018-08-16T23:14:20.411Z,63.72
2018-08-16T23:16:48.170Z,63.88
2018-08-16T23:19:15.727Z,63.74
2018-08-16T23:21:43.401Z,64.20
2018-08-16T23:24:11.023Z,64.38
2018-08-16T23:26:38.679Z,64.67
2018-08-16T23:29:06.230Z,64.20
2018-08-16T23:31:33.802Z,64.39
2018-08-16T23:34:01.386Z,64.57
2018-08-16T23:36:29.018Z,64.66
2018-08-16T23:38:56.657Z,64.76
2018-08-16T23:41:24.243Z,64.68
2018-08-16T23:43:51.836Z,64.88
2018-08-16T23:46:19.424Z,64.97
2018-08-16T23:48:46.993Z,64.78
2018-08-16T23:51:14.541Z,65.58
2018-08-16T23:53:42.149Z,65.28
2018-08-16T23:56:09.699Z,64.99
2018-08-16T23:58:37.281Z,64.78
